createdAt,value
2023-05-23T00:01:24.940Z,26.67
2023-05-23T00:05:29.242Z,20.02
2023-05-23T00:09:32.002Z,17.95
2023-05-23T00:13:35.882Z,20.70
2023-05-23T00:17:39.599Z,14.10
2023-05-23T00:21:45.664Z,22.15
2023-05-23T00:25:52.828Z,12.55
2023-05-23T00:29:56.099Z,15.40
2023-05-23T00:33:58.762Z,16.25
2023-05-23T00:38:03.419Z,14.15
2023-05-23T00:42:07.882Z,17.15
2023-05-23T00:46:11.203Z,16.98
2023-05-23T00:50:17.938Z,18.52
2023-05-23T00:54:27.297Z,28.88
2023-05-23T00:58:30.428Z,16.98
2023-05-23T01:02:36.636Z,19.83
2023-05-23T01:06:40.170Z,29.85
2023-05-23T01:10:44.313Z,17.80
2023-05-23T01:14:52.634Z,14.98
2023-05-23T01:19:00.475Z,20.90
2023-05-23T01:23:37.939Z,20.00
2023-05-23T01:27:50.401Z,16.90
2023-05-23T01:31:54.980Z,15.35
2023-05-23T01:35:59.930Z,24.42
2023-05-23T01:40:02.720Z,19.40
2023-05-23T01:44:06.925Z,16.35
2023-05-23T01:48:10.607Z,16.88
2023-05-23T01:52:13.748Z,22.08
2023-05-23T01:56:16.560Z,17.92
2023-05-23T02:00:21.042Z,22.92
2023-05-23T02:04:24.094Z,21.55
2023-05-23T02:08:26.728Z,17.30
2023-05-23T02:12:29.432Z,30.05
2023-05-23T02:16:36.646Z,16.23
2023-05-23T02:20:40.137Z,20.90
2023-05-23T02:24:42.891Z,16.10
2023-05-23T02:28:45.599Z,13.02
2023-05-23T02:32:49.677Z,18.35
2023-05-23T02:36:52.568Z,18.10
2023-05-23T02:40:57.586Z,28.42
2023-05-23T02:45:00.340Z,21.30
2023-05-23T02:49:04.306Z,22.15
2023-05-23T02:53:07.043Z,19.15
2023-05-23T02:57:10.423Z,14.68
2023-05-23T03:01:13.103Z,18.08
2023-05-23T03:05:17.373Z,20.52
2023-05-23T03:09:20.172Z,28.25
2023-05-23T03:13:23.447Z,19.98
2023-05-23T03:17:26.874Z,20.80
2023-05-23T03:21:31.484Z,23.35
2023-05-23T03:25:34.483Z,17.73
2023-05-23T03:29:37.274Z,19.33
2023-05-23T03:33:40.650Z,30.52
2023-05-23T03:37:44.921Z,21.38
2023-05-23T03:41:47.826Z,22.58
2023-05-23T03:45:50.993Z,23.90
2023-05-23T03:49:53.833Z,22.40
2023-05-23T03:53:58.464Z,22.17
2023-05-23T03:58:01.691Z,30.27
2023-05-23T04:02:04.651Z,23.38
2023-05-23T04:06:07.970Z,34.95
2023-05-23T04:10:12.407Z,21.10
2023-05-23T04:14:15.797Z,20.48
2023-05-23T04:18:19.010Z,17.30
2023-05-23T04:22:21.808Z,17.88
2023-05-23T04:26:25.904Z,17.30
2023-05-23T04:30:30.597Z,22.70
2023-05-23T04:34:34.246Z,17.08
2023-05-23T04:38:38.468Z,19.05
2023-05-23T04:42:44.534Z,17.85
2023-05-23T04:46:47.240Z,18.67
2023-05-23T04:50:51.329Z,19.63
2023-05-23T04:54:54.172Z,25.52
2023-05-23T04:58:58.804Z,33.22
2023-05-23T05:03:01.547Z,19.48
2023-05-23T05:07:04.534Z,24.00
2023-05-23T05:11:07.242Z,19.35
2023-05-23T05:15:12.848Z,19.80
2023-05-23T05:19:16.983Z,17.95
2023-05-23T05:23:20.136Z,19.10
2023-05-23T05:27:22.847Z,18.92
2023-05-23T05:31:27.592Z,13.07
2023-05-23T05:35:30.417Z,10.27
2023-05-23T05:39:33.119Z,10.82
2023-05-23T05:43:36.008Z,10.32
2023-05-23T05:47:40.159Z,8.55
2023-05-23T05:51:42.849Z,9.65
2023-05-23T05:55:45.510Z,8.10
2023-05-23T05:59:48.192Z,8.18
2023-05-23T06:03:52.387Z,7.07
2023-05-23T06:07:55.182Z,8.93
2023-05-23T06:11:57.925Z,7.22
2023-05-23T06:16:00.792Z,7.93
2023-05-23T06:20:06.100Z,6.70
2023-05-23T06:24:09.216Z,7.03
2023-05-23T06:28:11.882Z,6.88
2023-05-23T06:32:14.619Z,6.72
2023-05-23T06:36:18.669Z,6.93
2023-05-23T06:40:21.456Z,7.78
2023-05-23T06:44:24.172Z,8.00
2023-05-23T06:48:26.866Z,7.85
2023-05-23T06:52:30.934Z,6.55
2023-05-23T06:56:33.609Z,6.97
2023-05-23T07:00:36.316Z,6.07
2023-05-23T07:04:39.224Z,5.75
2023-05-23T07:08:43.654Z,5.82
2023-05-23T07:12:46.385Z,4.57
2023-05-23T07:16:49.299Z,5.30
2023-05-23T07:20:52.041Z,4.40
2023-05-23T07:24:56.627Z,4.43
2023-05-23T07:28:59.812Z,4.53
2023-05-23T07:33:02.592Z,4.22
2023-05-23T07:37:05.322Z,3.58
2023-05-23T07:41:11.983Z,3.58
2023-05-23T07:45:15.582Z,3.28
2023-05-23T07:49:18.277Z,3.10
2023-05-23T07:53:21.114Z,2.80
2023-05-23T07:57:25.958Z,2.80
2023-05-23T08:01:29.487Z,2.60
2023-05-23T08:05:32.167Z,2.50
2023-05-23T08:09:34.822Z,2.22
2023-05-23T08:13:38.837Z,2.10
2023-05-23T08:17:41.657Z,1.90
2023-05-23T08:21:44.391Z,1.90
2023-05-23T08:25:47.170Z,1.58
2023-05-23T08:29:51.374Z,2.10
2023-05-23T08:33:54.099Z,1.45
2023-05-23T08:37:58.278Z,1.70
2023-05-23T08:42:01.796Z,1.60
2023-05-23T08:50:10.260Z,1.70
2023-05-23T08:54:15.718Z,1.90
2023-05-23T08:58:21.142Z,1.58
2023-05-23T09:02:25.992Z,2.00
2023-05-23T09:06:28.688Z,1.77
2023-05-23T09:10:31.440Z,1.75
2023-05-23T09:14:34.204Z,1.75
2023-05-23T09:18:40.162Z,1.67
2023-05-23T09:22:43.322Z,1.52
2023-05-23T09:26:47.923Z,2.00
2023-05-23T09:30:59.205Z,1.90
2023-05-23T09:35:05.043Z,1.63
2023-05-23T09:39:08.173Z,1.90
2023-05-23T09:43:11.033Z,1.98
2023-05-23T09:47:13.908Z,2.17
2023-05-23T09:55:21.864Z,2.15
2023-05-23T09:59:25.318Z,2.80
2023-05-23T10:03:33.349Z,2.92
2023-05-23T10:07:37.974Z,2.67
2023-05-23T10:12:43.967Z,2.83
2023-05-23T10:16:56.890Z,2.90
2023-05-23T10:21:08.658Z,3.03
2023-05-23T10:25:13.729Z,2.72
2023-05-23T10:29:16.635Z,2.70
2023-05-23T10:33:19.806Z,2.75
2023-05-23T10:37:26.532Z,2.67
2023-05-23T10:41:48.564Z,2.78
2023-05-23T10:45:52.150Z,3.20
2023-05-23T10:49:56.246Z,3.38
2023-05-23T10:53:58.968Z,3.20
2023-05-23T10:58:13.134Z,3.45
2023-05-23T11:02:16.864Z,3.70
2023-05-23T11:06:34.024Z,3.63
2023-05-23T11:10:53.495Z,3.30
2023-05-23T11:14:57.597Z,3.22
2023-05-23T11:19:23.170Z,3.60
2023-05-23T11:23:41.036Z,3.28
2023-05-23T11:27:47.686Z,3.65
2023-05-23T11:31:51.744Z,3.95
2023-05-23T11:35:54.469Z,3.67
2023-05-23T11:39:57.201Z,3.90
2023-05-23T11:44:01.637Z,4.03
2023-05-23T11:48:10.078Z,4.28
2023-05-23T11:52:12.775Z,4.03
2023-05-23T11:56:16.384Z,4.18
2023-05-23T12:00:20.073Z,4.03
2023-05-23T12:04:26.425Z,4.10
2023-05-23T12:08:29.183Z,4.07
2023-05-23T12:12:33.108Z,3.65
2023-05-23T12:16:36.369Z,4.00
2023-05-23T12:20:42.676Z,3.85
2023-05-23T12:24:48.516Z,3.75
2023-05-23T12:28:51.557Z,3.72
2023-05-23T12:37:15.029Z,4.00
2023-05-23T12:41:22.305Z,4.35
2023-05-23T12:45:31.460Z,3.80
2023-05-23T12:49:34.141Z,3.95
2023-05-23T12:53:38.482Z,3.50
2023-05-23T12:57:41.423Z,3.50
2023-05-23T13:01:44.212Z,3.28
2023-05-23T13:05:46.996Z,3.05
2023-05-23T13:09:51.338Z,3.28
2023-05-23T13:13:54.032Z,3.60
2023-05-23T13:17:57.972Z,3.63
2023-05-23T13:22:01.464Z,3.17
2023-05-23T13:26:06.591Z,3.75
2023-05-23T13:30:10.334Z,3.67
2023-05-23T13:34:13.010Z,3.60
2023-05-23T13:38:16.305Z,3.95
2023-05-23T13:42:20.465Z,3.40
2023-05-23T13:46:23.226Z,3.35
2023-05-23T13:50:26.245Z,3.65
2023-05-23T13:54:28.897Z,3.70
2023-05-23T13:58:33.056Z,3.20
2023-05-23T14:02:35.904Z,3.45
2023-05-23T14:06:38.998Z,3.63
2023-05-23T14:14:46.132Z,4.40
2023-05-23T14:18:48.845Z,4.13
2023-05-23T14:22:52.142Z,3.65
2023-05-23T14:26:55.076Z,3.63
2023-05-23T14:30:59.177Z,3.47
2023-05-23T14:35:01.871Z,3.85
2023-05-23T14:39:05.988Z,3.88
2023-05-23T14:43:09.676Z,3.67
2023-05-23T14:47:13.718Z,3.55
2023-05-23T14:51:30.399Z,3.35
2023-05-23T14:55:40.451Z,3.17
2023-05-23T14:59:43.280Z,3.25
2023-05-23T15:03:47.392Z,2.95
2023-05-23T15:07:50.196Z,3.22
2023-05-23T15:11:52.959Z,3.50
2023-05-23T15:15:56.675Z,3.47
2023-05-23T15:20:00.894Z,3.42
2023-05-23T15:24:04.245Z,3.45
2023-05-23T15:28:06.971Z,4.10
2023-05-23T15:32:09.720Z,3.85
2023-05-23T15:36:14.092Z,3.92
2023-05-23T15:40:16.901Z,3.80
2023-05-23T15:44:21.080Z,3.80
2023-05-23T15:48:23.727Z,3.90
2023-05-23T15:52:28.210Z,4.50
2023-05-23T15:56:30.960Z,3.67
2023-05-23T16:00:33.815Z,4.18
2023-05-23T16:04:36.982Z,4.85
2023-05-23T16:12:43.829Z,5.03
2023-05-23T16:16:46.652Z,5.05
2023-05-23T16:20:49.381Z,4.38
2023-05-23T16:24:55.307Z,5.18
2023-05-23T16:28:58.210Z,4.00
2023-05-23T16:33:01.060Z,4.18
2023-05-23T16:37:03.747Z,3.75
2023-05-23T16:41:07.814Z,3.88
2023-05-23T16:45:10.898Z,3.80
2023-05-23T16:49:13.615Z,3.53
2023-05-23T16:53:16.327Z,3.47
2023-05-23T16:57:20.340Z,3.47
2023-05-23T17:01:23.116Z,3.35
2023-05-23T17:05:26.704Z,3.30
2023-05-23T17:09:29.375Z,2.90
2023-05-23T17:13:34.645Z,2.50
2023-05-23T17:17:37.612Z,3.13
2023-05-23T17:21:40.305Z,2.78
2023-05-23T17:25:43.202Z,2.92
2023-05-23T17:29:47.415Z,2.90
2023-05-23T17:33:50.173Z,2.88
2023-05-23T17:37:57.465Z,3.33
2023-05-23T17:42:00.973Z,3.17
2023-05-23T17:46:05.216Z,2.88
2023-05-23T17:50:10.008Z,3.20
2023-05-23T17:54:12.707Z,3.00
2023-05-23T17:58:15.630Z,3.28
2023-05-23T18:02:19.735Z,3.10
2023-05-23T18:06:22.423Z,3.03
2023-05-23T18:10:25.535Z,3.10
2023-05-23T18:14:28.169Z,2.92
2023-05-23T18:18:32.518Z,3.15
2023-05-23T18:22:35.271Z,3.30
2023-05-23T18:26:42.165Z,2.80
2023-05-23T18:30:45.094Z,3.10
2023-05-23T18:34:49.165Z,2.72
2023-05-23T18:38:52.117Z,3.03
2023-05-23T18:42:54.902Z,3.20
2023-05-23T18:46:57.743Z,2.97
2023-05-23T18:51:01.934Z,3.03
2023-05-23T18:55:05.675Z,3.22
2023-05-23T18:59:08.651Z,2.55
2023-05-23T19:03:11.887Z,3.13
2023-05-23T19:07:16.305Z,2.90
2023-05-23T19:11:19.043Z,3.35
2023-05-23T19:15:22.013Z,2.95
2023-05-23T19:19:24.741Z,3.22
2023-05-23T19:23:28.928Z,3.28
2023-05-23T19:27:31.568Z,3.20
2023-05-23T19:31:34.315Z,3.03
2023-05-23T19:35:37.166Z,3.42
2023-05-23T19:39:45.594Z,4.10
2023-05-23T19:43:48.349Z,3.40
2023-05-23T19:47:51.059Z,3.13
2023-05-23T19:51:53.746Z,3.30
2023-05-23T19:55:58.491Z,3.63
2023-05-23T20:00:01.295Z,3.47
2023-05-23T20:04:04.117Z,3.60
2023-05-23T20:08:06.881Z,3.20
2023-05-23T20:12:11.037Z,3.22
2023-05-23T20:16:13.995Z,3.10
2023-05-23T20:20:16.739Z,3.20
2023-05-23T20:24:19.883Z,3.22
2023-05-23T20:28:23.940Z,3.40
2023-05-23T20:32:26.860Z,3.70
2023-05-23T20:36:29.557Z,3.17
2023-05-23T20:40:33.539Z,3.55
2023-05-23T20:44:38.176Z,3.30
2023-05-23T20:48:41.268Z,3.05
2023-05-23T20:52:44.103Z,3.20
2023-05-23T20:56:47.157Z,3.58
2023-05-23T21:00:51.756Z,3.50
2023-05-23T21:04:54.641Z,4.45
2023-05-23T21:08:57.502Z,3.83
2023-05-23T21:13:00.315Z,4.78
2023-05-23T21:17:04.715Z,4.00
2023-05-23T21:21:07.481Z,4.35
2023-05-23T21:25:10.589Z,4.00
2023-05-23T21:29:13.241Z,5.05
2023-05-23T21:33:17.496Z,4.22
2023-05-23T21:37:20.223Z,5.57
2023-05-23T21:41:25.873Z,4.18
2023-05-23T21:45:28.589Z,4.50
2023-05-23T21:49:35.149Z,5.07
2023-05-23T21:53:37.918Z,6.70
2023-05-23T21:57:40.606Z,6.13
2023-05-23T22:01:43.380Z,5.10
2023-05-23T22:05:47.523Z,6.82
2023-05-23T22:09:51.147Z,5.18
2023-05-23T22:13:53.845Z,4.22
2023-05-23T22:17:57.377Z,6.90
2023-05-23T22:22:01.484Z,5.18
2023-05-23T22:26:05.181Z,5.40
2023-05-23T22:34:11.305Z,6.00
2023-05-23T22:38:15.549Z,5.40
2023-05-23T22:42:18.295Z,5.88
2023-05-23T22:46:21.012Z,6.00
2023-05-23T22:50:23.679Z,4.95
2023-05-23T22:54:27.722Z,5.45
2023-05-23T22:58:30.426Z,7.40
2023-05-23T23:02:34.476Z,4.90
2023-05-23T23:06:37.311Z,6.50
2023-05-23T23:10:43.858Z,6.78
2023-05-23T23:14:47.362Z,4.40
2023-05-23T23:18:50.040Z,7.07
2023-05-23T23:22:52.742Z,5.10
2023-05-23T23:26:57.090Z,5.40
2023-05-23T23:30:59.796Z,6.88
2023-05-23T23:35:02.599Z,6.15
2023-05-23T23:39:05.281Z,5.00
2023-05-23T23:43:09.415Z,5.05
2023-05-23T23:47:12.081Z,5.10
2023-05-23T23:51:14.807Z,4.85
2023-05-23T23:55:17.514Z,5.15
2023-05-23T23:59:21.888Z,5.07
